createdAt,value
2023-05-10T00:00:18.620Z,35.64
2023-05-10T00:01:18.463Z,35.62
2023-05-10T00:02:18.507Z,35.62
2023-05-10T00:03:18.598Z,35.66
2023-05-10T00:04:18.634Z,35.63
2023-05-10T00:05:18.550Z,35.66
2023-05-10T00:06:18.553Z,35.65
2023-05-10T00:07:18.578Z,35.64
2023-05-10T00:08:18.613Z,35.64
2023-05-10T00:09:18.615Z,35.66
2023-05-10T00:10:18.793Z,35.66
2023-05-10T00:11:19.608Z,35.66
2023-05-10T00:12:18.724Z,35.65
2023-05-10T00:13:18.801Z,35.63
2023-05-10T00:14:18.925Z,35.65
2023-05-10T00:15:18.779Z,35.65
2023-05-10T00:16:18.808Z,35.66
2023-05-10T00:17:18.813Z,35.67
2023-05-10T00:18:18.836Z,35.66
2023-05-10T00:19:18.861Z,35.68
2023-05-10T00:20:19.252Z,35.69
2023-05-10T00:21:18.902Z,35.64
2023-05-10T00:22:18.917Z,35.66
2023-05-10T00:23:19.031Z,35.68
2023-05-10T00:24:18.954Z,35.67
2023-05-10T00:25:18.967Z,35.69
2023-05-10T00:26:19.002Z,35.68
2023-05-10T00:27:19.036Z,35.68
2023-05-10T00:28:19.021Z,35.67
2023-05-10T00:29:19.030Z,35.69
2023-05-10T00:30:19.293Z,35.66
2023-05-10T00:31:19.071Z,35.68
2023-05-10T00:32:19.240Z,35.69
2023-05-10T00:33:19.100Z,35.68
2023-05-10T00:34:19.146Z,35.69
2023-05-10T00:35:19.140Z,35.70
2023-05-10T00:36:19.135Z,35.67
2023-05-10T00:37:19.171Z,35.67
2023-05-10T00:38:19.179Z,35.71
2023-05-10T00:39:19.216Z,35.70
2023-05-10T00:40:19.390Z,35.72
2023-05-10T00:41:19.245Z,35.70
2023-05-10T00:42:19.263Z,35.69
2023-05-10T00:43:19.308Z,35.71
2023-05-10T00:44:19.319Z,35.70
2023-05-10T00:45:19.342Z,35.68
2023-05-10T00:46:19.408Z,35.68
2023-05-10T00:47:19.367Z,35.70
2023-05-10T00:48:19.396Z,35.72
2023-05-10T00:49:19.418Z,35.71
2023-05-10T00:50:19.447Z,35.71
2023-05-10T00:51:19.456Z,35.72
2023-05-10T00:52:19.491Z,35.70
2023-05-10T00:53:19.504Z,35.73
2023-05-10T00:54:19.531Z,35.73
2023-05-10T00:55:19.541Z,35.72
2023-05-10T00:56:19.568Z,35.73
2023-05-10T00:57:19.589Z,35.71
2023-05-10T00:58:19.622Z,35.73
2023-05-10T00:59:19.626Z,35.74
2023-05-10T01:00:19.653Z,35.72
2023-05-10T01:01:19.680Z,35.72
2023-05-10T01:02:19.697Z,35.72
2023-05-10T01:03:19.894Z,35.71
2023-05-10T01:04:19.730Z,35.72
2023-05-10T01:05:19.812Z,35.73
2023-05-10T01:06:19.769Z,35.73
2023-05-10T01:07:19.794Z,35.72
2023-05-10T01:08:19.845Z,35.74
2023-05-10T01:09:19.842Z,35.75
2023-05-10T01:10:19.881Z,35.73
2023-05-10T01:11:19.894Z,35.73
2023-05-10T01:12:19.994Z,35.74
2023-05-10T01:13:20.022Z,35.74
2023-05-10T01:14:19.976Z,35.71
2023-05-10T01:15:20.007Z,35.75
2023-05-10T01:16:20.046Z,35.74
2023-05-10T01:17:20.127Z,35.72
2023-05-10T01:18:20.104Z,35.74
2023-05-10T01:19:20.117Z,35.75
2023-05-10T01:20:20.260Z,35.74
2023-05-10T01:21:20.160Z,35.74
2023-05-10T01:22:20.209Z,35.74
2023-05-10T01:23:20.218Z,35.76
2023-05-10T01:24:20.254Z,35.76
2023-05-10T01:25:20.260Z,35.77
2023-05-10T01:26:20.287Z,35.75
2023-05-10T01:27:20.319Z,35.74
2023-05-10T01:28:20.359Z,35.75
2023-05-10T01:29:20.391Z,35.74
2023-05-10T01:31:20.592Z,35.75
2023-05-10T01:32:20.476Z,35.76
2023-05-10T01:33:20.489Z,35.75
2023-05-10T01:34:20.512Z,35.73
2023-05-10T01:35:20.566Z,35.74
2023-05-10T01:36:20.573Z,35.74
2023-05-10T01:37:20.613Z,35.75
2023-05-10T01:38:20.634Z,35.76
2023-05-10T01:39:20.680Z,35.76
2023-05-10T01:40:20.724Z,35.75
2023-05-10T01:41:20.746Z,35.74
2023-05-10T01:42:20.769Z,35.74
2023-05-10T01:43:20.824Z,35.75
2023-05-10T01:44:20.838Z,35.77
2023-05-10T01:45:20.869Z,35.75
2023-05-10T01:46:20.905Z,35.76
2023-05-10T01:47:20.930Z,35.79
2023-05-10T01:48:20.994Z,35.75
2023-05-10T01:49:21.009Z,35.74
2023-05-10T01:50:21.036Z,35.74
2023-05-10T01:51:21.060Z,35.76
2023-05-10T01:52:21.073Z,35.74
2023-05-10T01:53:21.118Z,35.76
2023-05-10T01:54:21.151Z,35.74
2023-05-10T01:55:21.186Z,35.77
2023-05-10T01:56:21.214Z,35.74
2023-05-10T01:57:21.255Z,35.76
2023-05-10T01:58:21.283Z,35.75
2023-05-10T01:59:21.318Z,35.77
2023-05-10T02:00:21.350Z,35.77
2023-05-10T02:01:21.458Z,35.76
2023-05-10T02:02:21.397Z,35.76
2023-05-10T02:03:21.450Z,35.78
2023-05-10T02:04:21.466Z,35.77
2023-05-10T02:05:21.493Z,35.80
2023-05-10T02:06:21.581Z,35.75
2023-05-10T02:07:21.548Z,35.77
2023-05-10T02:08:21.578Z,35.78
2023-05-10T02:09:21.612Z,35.78
2023-05-10T02:10:21.653Z,35.79
2023-05-10T02:11:21.702Z,35.80
2023-05-10T02:12:21.802Z,35.79
2023-05-10T02:13:21.808Z,35.78
2023-05-10T02:14:21.789Z,35.80
2023-05-10T02:15:21.797Z,35.78
2023-05-10T02:16:21.857Z,35.78
2023-05-10T02:17:21.866Z,35.77
2023-05-10T02:18:21.904Z,35.76
2023-05-10T02:19:21.931Z,35.79
2023-05-10T02:20:21.958Z,35.77
2023-05-10T02:21:22.020Z,35.80
2023-05-10T02:22:22.010Z,35.76
2023-05-10T02:23:22.054Z,35.77
2023-05-10T02:24:22.093Z,35.77
2023-05-10T02:25:22.118Z,35.79
2023-05-10T02:26:22.133Z,35.78
2023-05-10T02:27:22.160Z,35.79
2023-05-10T02:28:22.229Z,35.78
2023-05-10T02:29:22.246Z,35.79
2023-05-10T02:30:22.394Z,35.77
2023-05-10T02:31:22.344Z,35.79
2023-05-10T02:32:22.348Z,35.80
2023-05-10T02:33:22.371Z,35.81
2023-05-10T02:34:22.406Z,35.79
2023-05-10T02:35:22.447Z,35.78
2023-05-10T02:36:22.506Z,35.81
2023-05-10T02:37:22.498Z,35.80
2023-05-10T02:38:22.546Z,35.78
2023-05-10T02:39:22.588Z,35.80
2023-05-10T02:40:22.679Z,35.81
2023-05-10T02:41:22.658Z,35.81
2023-05-10T02:42:22.689Z,35.80
2023-05-10T02:43:22.725Z,35.80
2023-05-10T02:44:22.764Z,35.81
2023-05-10T02:45:22.779Z,35.82
2023-05-10T02:46:22.859Z,35.82
2023-05-10T02:47:22.838Z,35.80
2023-05-10T02:48:22.879Z,35.80
2023-05-10T02:49:22.926Z,35.82
2023-05-10T02:50:22.947Z,35.81
2023-05-10T02:51:23.003Z,35.81
2023-05-10T02:52:23.024Z,35.82
2023-05-10T02:53:23.075Z,35.83
2023-05-10T02:54:23.108Z,35.84
2023-05-10T02:55:23.148Z,35.82
2023-05-10T02:56:23.186Z,35.85
2023-05-10T02:57:23.244Z,35.81
2023-05-10T02:58:23.261Z,35.85
2023-05-10T02:59:23.309Z,35.83
2023-05-10T03:00:23.329Z,35.83
2023-05-10T03:01:23.395Z,35.82
2023-05-10T03:02:23.416Z,35.85
2023-05-10T03:03:23.457Z,35.85
2023-05-10T03:04:23.529Z,35.83
2023-05-10T03:05:23.513Z,35.84
2023-05-10T03:06:23.533Z,35.85
2023-05-10T03:07:23.587Z,35.84
2023-05-10T03:08:23.599Z,35.84
2023-05-10T03:09:23.658Z,35.86
2023-05-10T03:10:23.733Z,35.85
2023-05-10T03:11:23.694Z,35.86
2023-05-10T03:12:23.719Z,35.85
2023-05-10T03:13:23.877Z,35.84
2023-05-10T03:14:23.814Z,35.87
2023-05-10T03:15:23.845Z,35.86
2023-05-10T03:16:23.940Z,35.87
2023-05-10T03:17:23.952Z,35.86
2023-05-10T03:18:23.983Z,35.87
2023-05-10T03:19:24.011Z,35.85
2023-05-10T03:20:24.043Z,35.89
2023-05-10T03:21:24.084Z,35.86
2023-05-10T03:22:24.183Z,35.87
2023-05-10T03:23:24.161Z,35.91
2023-05-10T03:24:24.227Z,35.86
2023-05-10T03:25:24.282Z,35.86
2023-05-10T03:26:24.299Z,35.87
2023-05-10T03:27:24.335Z,35.85
2023-05-10T03:28:24.380Z,35.89
2023-05-10T03:29:24.434Z,35.87
2023-05-10T03:30:27.402Z,35.87
2023-05-10T03:31:24.527Z,35.89
2023-05-10T03:32:24.508Z,35.89
2023-05-10T03:33:24.513Z,35.87
2023-05-10T03:34:24.531Z,35.88
2023-05-10T03:35:24.538Z,35.89
2023-05-10T03:36:24.551Z,35.88
2023-05-10T03:37:24.560Z,35.88
2023-05-10T03:38:24.578Z,35.89
2023-05-10T03:39:24.594Z,35.91
2023-05-10T03:40:24.602Z,35.90
2023-05-10T03:41:24.643Z,35.88
2023-05-10T03:42:24.638Z,35.91
2023-05-10T03:43:24.644Z,35.88
2023-05-10T03:44:24.638Z,35.91
2023-05-10T03:45:24.643Z,35.89
2023-05-10T03:46:24.821Z,35.91
2023-05-10T03:47:24.676Z,35.91
2023-05-10T03:48:24.681Z,35.92
2023-05-10T03:49:24.677Z,35.94
2023-05-10T03:50:24.679Z,35.92
2023-05-10T03:51:24.690Z,35.91
2023-05-10T03:52:24.751Z,35.92
2023-05-10T03:53:24.718Z,35.92
2023-05-10T03:54:24.723Z,35.95
2023-05-10T03:55:24.726Z,35.94
2023-05-10T03:56:24.729Z,35.94
2023-05-10T03:57:24.740Z,35.92
2023-05-10T03:58:24.744Z,35.96
2023-05-10T03:59:24.782Z,35.93
2023-05-10T04:00:24.767Z,35.91
2023-05-10T04:01:24.800Z,35.92
2023-05-10T04:02:24.922Z,35.93
2023-05-10T04:03:24.849Z,35.93
2023-05-10T04:04:24.808Z,35.94
2023-05-10T04:05:24.822Z,35.92
2023-05-10T04:06:24.867Z,35.95
2023-05-10T04:07:24.844Z,35.96
2023-05-10T04:08:24.848Z,35.90
2023-05-10T04:09:24.892Z,35.94
2023-05-10T04:10:24.873Z,35.95
2023-05-10T04:11:24.885Z,35.95
2023-05-10T04:12:24.890Z,35.94
2023-05-10T04:13:25.052Z,35.93
2023-05-10T04:14:24.914Z,35.96
2023-05-10T04:15:24.922Z,35.94
2023-05-10T04:16:24.974Z,35.95
2023-05-10T04:17:25.003Z,35.96
2023-05-10T04:18:24.975Z,35.95
2023-05-10T04:19:24.990Z,35.95
2023-05-10T04:20:24.999Z,35.96
2023-05-10T04:21:25.015Z,35.95
2023-05-10T04:22:25.029Z,35.96
2023-05-10T04:23:25.045Z,35.95
2023-05-10T04:24:25.079Z,35.96
2023-05-10T04:25:25.073Z,35.99
2023-05-10T04:26:25.096Z,35.98
2023-05-10T04:27:25.081Z,35.97
2023-05-10T04:28:25.107Z,35.96
2023-05-10T04:29:25.160Z,35.99
2023-05-10T04:30:25.116Z,35.96
2023-05-10T04:31:25.252Z,35.96
2023-05-10T04:32:25.153Z,35.96
2023-05-10T04:33:25.146Z,35.98
2023-05-10T04:34:25.159Z,35.98
2023-05-10T04:35:25.174Z,35.98
2023-05-10T04:36:25.269Z,35.98
2023-05-10T04:37:25.182Z,35.99
2023-05-10T04:38:25.193Z,36.00
2023-05-10T04:39:25.199Z,35.96
2023-05-10T04:40:25.217Z,35.98
2023-05-10T04:41:25.233Z,35.98
2023-05-10T04:42:25.238Z,36.00
2023-05-10T04:43:25.243Z,36.00
2023-05-10T04:44:25.278Z,35.99
2023-05-10T04:45:25.316Z,35.98
2023-05-10T04:46:25.483Z,35.99
2023-05-10T04:47:25.378Z,36.02
2023-05-10T04:48:25.388Z,36.02
2023-05-10T04:49:25.396Z,35.98
2023-05-10T04:50:25.418Z,35.99
2023-05-10T04:51:25.419Z,35.98
2023-05-10T04:52:25.446Z,36.01
2023-05-10T04:53:25.433Z,36.01
2023-05-10T04:54:25.444Z,36.01
2023-05-10T04:55:25.454Z,35.99
2023-05-10T04:56:25.472Z,36.03
2023-05-10T04:57:25.474Z,36.00
2023-05-10T04:58:25.510Z,36.02
2023-05-10T04:59:25.499Z,36.03
2023-05-10T05:00:25.503Z,36.03
2023-05-10T05:01:25.565Z,36.01
2023-05-10T05:02:25.595Z,36.02
2023-05-10T05:03:25.558Z,36.02
2023-05-10T05:04:25.540Z,36.03
2023-05-10T05:05:25.550Z,36.02
2023-05-10T05:06:25.555Z,36.01
2023-05-10T05:07:25.563Z,36.02
2023-05-10T05:08:25.591Z,35.98
2023-05-10T05:09:25.590Z,36.01
2023-05-10T05:10:25.594Z,36.04
2023-05-10T05:11:25.609Z,36.03
2023-05-10T05:12:25.694Z,36.02
2023-05-10T05:13:25.804Z,36.01
2023-05-10T05:14:25.780Z,36.02
2023-05-10T05:15:25.827Z,36.02
2023-05-10T05:16:25.977Z,36.01
2023-05-10T05:17:25.951Z,36.04
2023-05-10T05:18:25.981Z,36.02
2023-05-10T05:19:25.997Z,36.04
2023-05-10T05:20:25.988Z,36.02
2023-05-10T05:21:26.008Z,36.03
2023-05-10T05:22:26.007Z,36.02
2023-05-10T05:23:26.007Z,36.06
2023-05-10T05:24:26.035Z,36.06
2023-05-10T05:25:26.039Z,36.04
2023-05-10T05:26:26.115Z,36.04
2023-05-10T05:27:26.047Z,36.03
2023-05-10T05:28:26.197Z,36.05
2023-05-10T05:29:26.087Z,36.03
2023-05-10T05:30:26.092Z,36.02
2023-05-10T05:31:26.169Z,36.01
2023-05-10T05:32:26.278Z,36.03
2023-05-10T05:33:26.112Z,36.03
2023-05-10T05:34:26.129Z,36.19
2023-05-10T05:35:26.117Z,36.21
2023-05-10T05:36:26.197Z,36.38
2023-05-10T05:37:26.147Z,36.50
2023-05-10T05:38:26.199Z,36.57
2023-05-10T05:39:26.273Z,36.56
2023-05-10T05:40:26.320Z,36.77
2023-05-10T05:41:26.348Z,36.83
2023-05-10T05:42:26.396Z,37.11
2023-05-10T05:43:26.447Z,37.43
2023-05-10T05:44:26.512Z,37.93
2023-05-10T05:45:26.536Z,38.02
2023-05-10T05:46:26.648Z,38.52
2023-05-10T05:47:26.840Z,39.05
2023-05-10T05:48:26.725Z,39.26
2023-05-10T05:49:26.768Z,39.84
2023-05-10T05:50:26.736Z,40.25
2023-05-10T05:51:26.831Z,40.41
2023-05-10T05:52:26.866Z,40.73
2023-05-10T05:53:26.997Z,41.33
2023-05-10T05:54:27.050Z,41.54
2023-05-10T05:55:26.884Z,41.69
2023-05-10T05:56:26.926Z,42.20
2023-05-10T05:57:26.913Z,42.86
2023-05-10T05:58:26.971Z,43.12
2023-05-10T05:59:27.049Z,42.88
2023-05-10T06:00:26.925Z,44.35
2023-05-10T06:01:26.853Z,43.63
2023-05-10T06:02:26.948Z,43.81
2023-05-10T06:03:27.017Z,43.63
2023-05-10T06:04:27.025Z,43.85
2023-05-10T06:05:26.901Z,43.57
2023-05-10T06:06:26.904Z,43.95
2023-05-10T06:07:26.900Z,43.98
2023-05-10T06:08:26.909Z,44.00
2023-05-10T06:09:26.896Z,44.28
2023-05-10T06:10:26.936Z,44.06
2023-05-10T06:11:26.906Z,44.29
2023-05-10T06:12:26.932Z,44.32
2023-05-10T06:13:27.083Z,43.76
2023-05-10T06:14:26.974Z,44.22
2023-05-10T06:15:26.982Z,44.55
2023-05-10T06:16:27.087Z,45.02
2023-05-10T06:17:27.142Z,44.98
2023-05-10T06:18:27.231Z,45.09
2023-05-10T06:19:27.160Z,44.58
2023-05-10T06:20:27.495Z,44.93
2023-05-10T06:21:27.185Z,44.81
2023-05-10T06:22:27.228Z,44.85
2023-05-10T06:23:27.190Z,44.84
2023-05-10T06:24:27.211Z,45.01
2023-05-10T06:25:27.228Z,45.04
2023-05-10T06:26:27.239Z,44.60
2023-05-10T06:27:27.316Z,44.49
2023-05-10T06:28:27.505Z,44.36
2023-05-10T06:29:27.553Z,44.40
2023-05-10T06:30:27.644Z,44.91
2023-05-10T06:31:27.677Z,44.51
2023-05-10T06:32:27.669Z,44.40
2023-05-10T06:33:27.732Z,44.25
2023-05-10T06:34:27.801Z,44.37
2023-05-10T06:35:27.922Z,44.36
2023-05-10T06:36:28.128Z,44.37
2023-05-10T06:37:28.540Z,44.21
2023-05-10T06:38:28.215Z,44.19
2023-05-10T06:39:28.161Z,44.36
2023-05-10T06:40:28.309Z,44.48
2023-05-10T06:41:28.333Z,44.52
2023-05-10T06:42:28.459Z,43.73
2023-05-10T06:43:28.326Z,41.82
2023-05-10T06:44:29.019Z,41.40
2023-05-10T06:45:28.466Z,42.36
2023-05-10T06:46:28.531Z,43.13
2023-05-10T06:47:28.778Z,43.32
2023-05-10T06:48:28.638Z,43.00
2023-05-10T06:49:28.693Z,41.59
2023-05-10T06:50:28.749Z,40.25
2023-05-10T06:51:28.783Z,40.00
2023-05-10T06:52:28.841Z,39.64
2023-05-10T06:53:28.924Z,39.77
2023-05-10T06:54:29.026Z,39.73
2023-05-10T06:55:29.040Z,39.70
2023-05-10T06:56:29.106Z,39.60
2023-05-10T06:57:32.043Z,39.69
2023-05-10T06:58:29.170Z,39.19
2023-05-10T06:59:29.172Z,38.93
2023-05-10T07:00:29.157Z,38.76
2023-05-10T07:01:29.274Z,38.60
2023-05-10T07:02:29.411Z,39.16
2023-05-10T07:03:29.136Z,39.08
2023-05-10T07:04:29.227Z,38.78
2023-05-10T07:05:29.315Z,38.72
2023-05-10T07:06:33.338Z,38.76
2023-05-10T07:07:29.256Z,38.49
2023-05-10T07:08:29.155Z,38.64
2023-05-10T07:09:29.174Z,38.60
2023-05-10T07:10:29.223Z,38.46
2023-05-10T07:11:29.155Z,38.42
2023-05-10T07:12:29.398Z,38.46
2023-05-10T07:13:29.200Z,38.51
2023-05-10T07:14:29.143Z,38.60
2023-05-10T07:15:29.159Z,38.44
2023-05-10T07:16:29.194Z,38.36
2023-05-10T07:17:29.308Z,38.39
2023-05-10T07:18:29.224Z,38.63
2023-05-10T07:19:29.279Z,38.36
2023-05-10T07:20:29.297Z,38.38
2023-05-10T07:21:29.387Z,38.56
2023-05-10T07:22:29.379Z,38.48
2023-05-10T07:23:29.422Z,38.39
2023-05-10T07:24:29.478Z,38.48
2023-05-10T07:25:29.547Z,38.31
2023-05-10T07:26:29.642Z,38.30
2023-05-10T07:27:29.685Z,38.46
2023-05-10T07:28:29.775Z,38.31
2023-05-10T07:29:29.830Z,38.30
2023-05-10T07:30:29.932Z,38.32
2023-05-10T07:31:29.973Z,38.28
2023-05-10T07:32:30.026Z,38.28
2023-05-10T07:33:29.928Z,38.30
2023-05-10T07:34:29.929Z,38.27
2023-05-10T07:35:29.927Z,38.42
2023-05-10T07:36:29.958Z,38.46
2023-05-10T07:37:29.936Z,38.48
2023-05-10T07:38:29.940Z,38.65
2023-05-10T07:39:29.940Z,38.62
2023-05-10T07:40:30.017Z,38.80
2023-05-10T07:41:30.058Z,39.10
2023-05-10T07:42:30.021Z,39.40
2023-05-10T07:43:30.021Z,39.32
2023-05-10T07:44:30.058Z,39.17
2023-05-10T07:45:30.107Z,39.35
2023-05-10T07:46:30.063Z,39.45
2023-05-10T07:47:30.099Z,39.51
2023-05-10T07:48:30.018Z,39.82
2023-05-10T07:49:30.033Z,39.85
2023-05-10T07:50:30.030Z,39.89
2023-05-10T07:51:30.028Z,39.85
2023-05-10T07:52:30.047Z,39.87
2023-05-10T07:53:30.117Z,39.84
2023-05-10T07:54:30.031Z,40.20
2023-05-10T07:55:30.051Z,40.38
2023-05-10T07:56:30.035Z,40.57
2023-05-10T07:57:29.998Z,40.62
2023-05-10T07:58:30.036Z,40.99
2023-05-10T07:59:30.010Z,41.24
2023-05-10T08:00:30.058Z,41.39
2023-05-10T08:01:30.004Z,41.44
2023-05-10T08:02:30.106Z,41.53
2023-05-10T08:03:30.138Z,41.64
2023-05-10T08:04:30.204Z,41.73
2023-05-10T08:05:30.018Z,41.85
2023-05-10T08:06:30.060Z,41.80
2023-05-10T08:07:30.047Z,41.83
2023-05-10T08:08:30.019Z,41.73
2023-05-10T08:09:30.004Z,41.79
2023-05-10T08:10:30.010Z,41.87
2023-05-10T08:11:29.976Z,41.94
2023-05-10T08:12:29.963Z,42.00
2023-05-10T08:13:29.974Z,42.02
2023-05-10T08:14:29.956Z,42.01
2023-05-10T08:15:29.963Z,42.20
2023-05-10T08:16:30.118Z,42.16
2023-05-10T08:17:29.963Z,42.29
2023-05-10T08:18:29.962Z,42.37
2023-05-10T08:19:29.938Z,42.38
2023-05-10T08:20:29.945Z,42.19
2023-05-10T08:21:30.048Z,42.37
2023-05-10T08:22:29.908Z,42.55
2023-05-10T08:23:29.922Z,42.70
2023-05-10T08:24:29.920Z,43.66
2023-05-10T08:25:29.919Z,43.38
2023-05-10T08:26:29.915Z,42.86
2023-05-10T08:27:29.917Z,42.79
2023-05-10T08:28:29.885Z,42.66
2023-05-10T08:29:32.875Z,42.81
2023-05-10T08:30:30.928Z,42.49
2023-05-10T08:31:29.982Z,42.59
2023-05-10T08:32:29.898Z,42.27
2023-05-10T08:33:29.858Z,40.78
2023-05-10T08:34:29.862Z,40.65
2023-05-10T08:35:29.878Z,39.82
2023-05-10T08:36:29.897Z,39.69
2023-05-10T08:37:29.810Z,38.85
2023-05-10T08:38:29.824Z,39.87
2023-05-10T08:39:30.909Z,40.02
2023-05-10T08:40:29.803Z,40.28
2023-05-10T08:41:29.945Z,40.56
2023-05-10T08:42:29.768Z,40.00
2023-05-10T08:43:29.836Z,39.91
2023-05-10T08:44:29.809Z,39.77
2023-05-10T08:45:30.122Z,40.32
2023-05-10T08:46:29.828Z,41.18
2023-05-10T08:47:29.773Z,40.80
2023-05-10T08:48:29.752Z,40.49
2023-05-10T08:49:29.786Z,40.21
2023-05-10T08:50:29.790Z,40.09
2023-05-10T08:51:29.758Z,39.89
2023-05-10T08:52:29.750Z,39.49
2023-05-10T08:53:29.804Z,39.44
2023-05-10T08:54:29.738Z,39.45
2023-05-10T08:55:29.731Z,38.98
2023-05-10T08:56:29.741Z,39.14
2023-05-10T08:57:29.732Z,39.09
2023-05-10T08:58:29.738Z,38.65
2023-05-10T08:59:29.785Z,38.63
2023-05-10T09:00:29.839Z,38.78
2023-05-10T09:01:29.839Z,38.86
2023-05-10T09:02:29.791Z,38.71
2023-05-10T09:03:29.788Z,38.54
2023-05-10T09:04:29.869Z,38.40
2023-05-10T09:05:29.754Z,38.26
2023-05-10T09:06:29.705Z,38.24
2023-05-10T09:07:29.743Z,38.18
2023-05-10T09:08:29.681Z,38.28
2023-05-10T09:09:29.705Z,38.25
2023-05-10T09:10:29.730Z,38.14
2023-05-10T09:11:29.722Z,38.11
2023-05-10T09:12:29.792Z,38.05
2023-05-10T09:13:29.805Z,37.97
2023-05-10T09:14:29.813Z,37.96
2023-05-10T09:15:29.795Z,37.95
2023-05-10T09:16:29.846Z,37.87
2023-05-10T09:17:29.796Z,37.78
2023-05-10T09:18:29.784Z,37.74
2023-05-10T09:19:29.791Z,37.76
2023-05-10T09:20:30.493Z,37.69
2023-05-10T09:21:29.904Z,37.68
2023-05-10T09:22:29.880Z,37.65
2023-05-10T09:23:29.935Z,37.64
2023-05-10T09:24:29.981Z,37.65
2023-05-10T09:25:30.049Z,37.62
2023-05-10T09:26:30.121Z,37.59
2023-05-10T09:27:30.216Z,37.57
2023-05-10T09:28:30.262Z,37.50
2023-05-10T09:29:30.346Z,37.54
2023-05-10T09:30:30.389Z,37.50
2023-05-10T09:31:30.632Z,37.52
2023-05-10T09:32:30.616Z,37.46
2023-05-10T09:33:30.652Z,37.51
2023-05-10T09:34:30.646Z,37.53
2023-05-10T09:35:30.723Z,37.47
2023-05-10T09:36:30.787Z,37.41
2023-05-10T09:37:30.862Z,37.40
2023-05-10T09:38:30.961Z,37.40
2023-05-10T09:39:31.090Z,37.80
2023-05-10T09:40:31.129Z,37.84
2023-05-10T09:41:31.135Z,37.98
2023-05-10T09:42:31.292Z,39.15
2023-05-10T09:43:31.253Z,39.08
2023-05-10T09:44:31.311Z,39.34
2023-05-10T09:45:31.466Z,39.84
2023-05-10T09:46:31.692Z,40.01
2023-05-10T09:47:31.511Z,40.58
2023-05-10T09:48:31.559Z,40.62
2023-05-10T09:49:31.643Z,41.67
2023-05-10T09:50:31.674Z,41.91
2023-05-10T09:51:31.714Z,43.47
2023-05-10T09:52:31.752Z,42.62
2023-05-10T09:53:31.753Z,42.31
2023-05-10T09:54:31.820Z,42.24
2023-05-10T09:55:31.876Z,42.42
2023-05-10T09:56:31.884Z,43.30
2023-05-10T09:57:34.544Z,43.07
2023-05-10T09:58:31.917Z,43.48
2023-05-10T09:59:31.922Z,43.53
2023-05-10T10:00:31.922Z,43.69
2023-05-10T10:01:31.974Z,43.82
2023-05-10T10:02:31.957Z,43.76
2023-05-10T10:03:31.923Z,43.68
2023-05-10T10:04:32.013Z,43.48
2023-05-10T10:05:32.039Z,43.60
2023-05-10T10:06:31.895Z,43.91
2023-05-10T10:07:31.940Z,43.99
2023-05-10T10:08:31.905Z,43.76
2023-05-10T10:09:31.928Z,43.65
2023-05-10T10:10:31.910Z,43.85
2023-05-10T10:11:31.911Z,43.91
2023-05-10T10:12:31.963Z,44.26
2023-05-10T10:13:31.936Z,44.18
2023-05-10T10:14:31.918Z,44.27
2023-05-10T10:15:31.915Z,44.00
2023-05-10T10:16:32.114Z,44.19
2023-05-10T10:17:32.055Z,44.19
2023-05-10T10:18:31.939Z,43.98
2023-05-10T10:19:31.920Z,44.56
2023-05-10T10:20:31.928Z,44.29
2023-05-10T10:21:31.899Z,43.86
2023-05-10T10:22:31.892Z,43.75
2023-05-10T10:23:31.901Z,44.23
2023-05-10T10:24:31.908Z,43.96
2023-05-10T10:25:31.893Z,45.03
2023-05-10T10:26:31.912Z,43.76
2023-05-10T10:27:31.904Z,43.37
2023-05-10T10:28:31.910Z,43.94
2023-05-10T10:29:31.899Z,43.68
2023-05-10T10:30:31.910Z,43.42
2023-05-10T10:31:31.944Z,43.03
2023-05-10T10:32:31.920Z,43.10
2023-05-10T10:33:32.031Z,43.22
2023-05-10T10:34:31.861Z,42.49
2023-05-10T10:35:31.878Z,43.40
2023-05-10T10:36:31.894Z,43.78
2023-05-10T10:37:32.032Z,43.52
2023-05-10T10:38:31.891Z,43.62
2023-05-10T10:39:31.896Z,42.93
2023-05-10T10:40:34.395Z,43.29
2023-05-10T10:41:31.891Z,42.72
2023-05-10T10:42:31.856Z,41.29
2023-05-10T10:43:31.858Z,39.98
2023-05-10T10:44:31.888Z,39.28
2023-05-10T10:45:31.854Z,39.53
2023-05-10T10:46:31.915Z,39.91
2023-05-10T10:47:31.884Z,40.56
2023-05-10T10:48:31.866Z,40.39
2023-05-10T10:49:31.871Z,40.19
2023-05-10T10:50:31.844Z,40.07
2023-05-10T10:51:31.858Z,39.86
2023-05-10T10:52:31.891Z,39.83
2023-05-10T10:53:31.975Z,39.78
2023-05-10T10:54:31.898Z,39.66
2023-05-10T10:55:31.843Z,39.59
2023-05-10T10:56:31.848Z,39.57
2023-05-10T10:57:31.853Z,39.53
2023-05-10T10:58:31.839Z,39.43
2023-05-10T10:59:31.875Z,39.42
2023-05-10T11:00:32.273Z,39.34
2023-05-10T11:01:32.086Z,39.24
2023-05-10T11:02:32.037Z,39.12
2023-05-10T11:03:32.106Z,39.09
2023-05-10T11:04:32.165Z,39.04
2023-05-10T11:05:32.196Z,39.00
2023-05-10T11:06:32.280Z,39.07
2023-05-10T11:07:32.321Z,39.65
2023-05-10T11:08:32.423Z,39.11
2023-05-10T11:09:32.458Z,39.08
2023-05-10T11:10:32.499Z,39.02
2023-05-10T11:11:32.559Z,39.09
2023-05-10T11:12:32.637Z,38.84
2023-05-10T11:13:32.660Z,38.89
2023-05-10T11:14:32.732Z,39.38
2023-05-10T11:15:32.821Z,39.38
2023-05-10T11:16:32.867Z,39.51
2023-05-10T11:17:33.058Z,39.44
2023-05-10T11:18:33.023Z,39.36
2023-05-10T11:19:33.022Z,39.83
2023-05-10T11:20:33.077Z,41.26
2023-05-10T11:21:33.146Z,43.35
2023-05-10T11:22:33.192Z,42.56
2023-05-10T11:23:33.254Z,41.72
2023-05-10T11:24:33.297Z,41.19
2023-05-10T11:25:33.352Z,40.90
2023-05-10T11:26:33.501Z,40.77
2023-05-10T11:27:33.425Z,40.80
2023-05-10T11:28:33.404Z,40.68
2023-05-10T11:29:33.401Z,40.71
2023-05-10T11:30:33.497Z,40.71
2023-05-10T11:31:33.399Z,40.74
2023-05-10T11:32:33.399Z,40.78
2023-05-10T11:33:33.410Z,40.77
2023-05-10T11:34:33.394Z,40.77
2023-05-10T11:35:33.420Z,40.75
2023-05-10T11:36:33.464Z,40.78
2023-05-10T11:37:33.605Z,40.77
2023-05-10T11:38:33.419Z,40.71
2023-05-10T11:39:33.423Z,40.67
2023-05-10T11:40:33.454Z,40.63
2023-05-10T11:41:33.512Z,40.62
2023-05-10T11:42:33.444Z,40.56
2023-05-10T11:43:33.458Z,40.57
2023-05-10T11:44:33.489Z,40.52
2023-05-10T11:45:33.486Z,40.50
2023-05-10T11:46:33.551Z,40.43
2023-05-10T11:47:33.552Z,40.39
2023-05-10T11:48:33.504Z,40.38
2023-05-10T11:49:33.508Z,40.34
2023-05-10T11:50:33.523Z,40.35
2023-05-10T11:51:33.545Z,40.30
2023-05-10T11:52:33.587Z,40.22
2023-05-10T11:53:33.790Z,40.23
2023-05-10T11:54:33.726Z,40.22
2023-05-10T11:55:33.797Z,40.19
2023-05-10T11:56:33.863Z,40.17
2023-05-10T11:57:33.926Z,40.12
2023-05-10T11:58:33.964Z,40.08
2023-05-10T11:59:34.000Z,40.09
2023-05-10T12:00:33.996Z,40.08
2023-05-10T12:01:34.012Z,40.08
2023-05-10T12:02:34.037Z,40.02
2023-05-10T12:03:34.121Z,40.00
2023-05-10T12:04:34.020Z,40.00
2023-05-10T12:05:34.004Z,40.00
2023-05-10T12:06:34.035Z,40.00
2023-05-10T12:07:34.024Z,39.99
2023-05-10T12:08:34.089Z,39.95
2023-05-10T12:09:43.388Z,39.94
2023-05-10T12:10:35.163Z,39.91
2023-05-10T12:11:34.159Z,39.87
2023-05-10T12:12:34.117Z,39.84
2023-05-10T12:13:34.118Z,39.83
2023-05-10T12:14:34.100Z,39.79
2023-05-10T12:15:34.125Z,39.80
2023-05-10T12:16:34.200Z,39.74
2023-05-10T12:17:34.232Z,39.75
2023-05-10T12:18:34.152Z,39.76
2023-05-10T12:19:34.132Z,39.74
2023-05-10T12:20:34.132Z,39.70
2023-05-10T12:21:34.239Z,39.66
2023-05-10T12:22:34.289Z,39.65
2023-05-10T12:23:34.338Z,39.60
2023-05-10T12:24:34.411Z,39.59
2023-05-10T12:25:34.523Z,39.56
2023-05-10T12:26:34.568Z,39.55
2023-05-10T12:27:34.567Z,39.56
2023-05-10T12:28:34.628Z,39.56
2023-05-10T12:29:34.576Z,39.53
2023-05-10T12:30:34.587Z,39.47
2023-05-10T12:31:34.846Z,39.45
2023-05-10T12:32:34.626Z,39.41
2023-05-10T12:33:34.595Z,39.41
2023-05-10T12:34:34.655Z,39.42
2023-05-10T12:35:34.707Z,39.36
2023-05-10T12:36:34.785Z,39.35
2023-05-10T12:37:34.827Z,39.37
2023-05-10T12:38:34.900Z,39.32
2023-05-10T12:39:34.990Z,39.34
2023-05-10T12:40:35.087Z,39.33
2023-05-10T12:41:35.138Z,39.28
2023-05-10T12:42:35.197Z,39.31
2023-05-10T12:43:35.289Z,39.28
2023-05-10T12:44:35.338Z,39.24
2023-05-10T12:45:35.439Z,39.25
2023-05-10T12:46:35.425Z,39.22
2023-05-10T12:47:35.472Z,39.22
2023-05-10T12:48:35.442Z,39.25
2023-05-10T12:49:35.453Z,39.23
2023-05-10T12:50:35.433Z,39.23
2023-05-10T12:51:35.448Z,39.22
2023-05-10T12:52:35.448Z,39.22
2023-05-10T12:53:35.501Z,39.18